METAR Data
IDs: Format: Raw Decoded Include TAF

Data at: 2228 UTC 25 Oct 2021

KLHB 252215Z AUTO 17005KT 10SM BKN032 31/23 A2991 RMK AO2 T03050231
KLHB 252155Z AUTO 13003KT 10SM CLR 31/23 A2992 RMK AO2 T03060230
KLHB 252135Z AUTO 15004KT 10SM CLR 31/23 A2992 RMK AO2 T03100229
KLHB 252115Z AUTO 18006KT 10SM CLR 31/23 A2992 RMK AO2 T03090229
KLHB 252055Z AUTO 17004KT 7SM CLR 31/23 A2992 RMK AO2 T03050230
KLHB 252035Z AUTO 00000KT 10SM SCT026 31/23 A2992 RMK AO2 T03050233
KLHB 252015Z AUTO 17006KT 10SM SCT024 30/23 A2993 RMK AO2 T03010230
KLHB 251955Z AUTO 16003KT 10SM SCT024 30/23 A2993 RMK AO2 T03030233
KLHB 251935Z AUTO 00000KT 10SM SCT021 30/23 A2993 RMK AO2 T02950230
KLHB 251915Z AUTO 13006KT 10SM SCT019 29/23 A2995 RMK AO2 T02920230
KLHB 251855Z AUTO 13004KT 10SM BKN019 28/23 A2996 RMK AO2 T02840230
KLHB 251835Z AUTO 18003KT 10SM OVC017 28/23 A2997 RMK AO2 T02810230
KLHB 251815Z AUTO 20003KT 10SM OVC017 29/23 A2998 RMK AO2 T02850234
KLHB 251755Z AUTO 00000KT 10SM OVC013 27/23 A2999 RMK AO2 T02700229 10271 20226
KLHB 251735Z AUTO 00000KT 10SM OVC013 27/23 A2999 RMK AO2 T02660227
KLHB 251715Z AUTO 00000KT 10SM OVC011 26/23 A3000 RMK AO2 T02630227
KLHB 251655Z AUTO 22004KT 10SM OVC011 26/23 A3000 RMK AO2 T02600228
KLHB 251635Z AUTO 00000KT 10SM OVC011 26/23 A3000 RMK AO2 T02570228
KLHB 251615Z AUTO 16003KT 10SM OVC009 25/23 A3000 RMK AO2 T02530226
KLHB 251555Z AUTO 17004KT 10SM OVC009 25/23 A3000 RMK AO2 T02510226
KLHB 251535Z AUTO 19004KT 10SM OVC009 25/23 A3000 RMK AO2 T02490226
KLHB 251515Z AUTO 21004KT 10SM OVC009 25/23 A3000 RMK AO2 T02450225
KLHB 251455Z AUTO 20004KT 10SM OVC009 24/23 A3000 RMK AO2 T02430225
KLHB 251435Z AUTO 19003KT 10SM OVC009 24/23 A2999 RMK AO2 T02420225
KLHB 251415Z AUTO 00000KT 10SM OVC009 24/23 A2999 RMK AO2 T02400225
KLHB 251355Z AUTO 00000KT 10SM OVC009 24/22 A2999 RMK AO2 T02350223
KLHB 251335Z AUTO 00000KT 10SM OVC009 23/22 A2998 RMK AO2 T02330222
KLHB 251315Z AUTO 00000KT 10SM OVC007 23/22 A2997 RMK AO2 T02310222
KLHB 251255Z AUTO 00000KT 10SM OVC007 23/22 A2997 RMK AO2 T02300221
KLHB 251235Z AUTO 00000KT 10SM OVC007 23/22 A2996 RMK AO2 T02290220
KLHB 251215Z AUTO 00000KT 10SM OVC007 23/22 A2996 RMK AO2 T02260218
KLHB 251155Z AUTO 00000KT 10SM OVC007 23/22 A2995 RMK AO2 T02270218 10228 20219
KLHB 251135Z AUTO 00000KT 10SM OVC007 23/22 A2995 RMK AO2 T02280220
KLHB 251115Z AUTO 00000KT 10SM OVC005 23/22 A2994 RMK AO2 T02270220
KLHB 251055Z AUTO 00000KT 10SM OVC005 23/22 A2993 RMK AO2 T02260220
KLHB 251035Z AUTO 00000KT 10SM OVC005 23/22 A2993 RMK AO2 T02250218
KLHB 251015Z AUTO 00000KT 7SM OVC005 22/22 A2992 RMK AO2 T02230216
KLHB 250955Z AUTO 00000KT 7SM BKN005 22/21 A2992 RMK AO2 T02200213
KLHB 250935Z AUTO 00000KT 7SM CLR 22/21 A2992 RMK AO2 T02200211
KLHB 250915Z AUTO 00000KT 7SM CLR 22/21 A2991 RMK AO2 T02200212
KLHB 250855Z AUTO 00000KT 10SM CLR 22/21 A2991 RMK AO2 T02200210
KLHB 250835Z AUTO 00000KT 10SM CLR 22/21 A2991 RMK AO2 T02220213
KLHB 250815Z AUTO 00000KT 10SM CLR 22/21 A2992 RMK AO2 T02210211
KLHB 250755Z AUTO 00000KT 10SM CLR 22/21 A2992 RMK AO2 T02210211
KLHB 250735Z AUTO 00000KT 10SM CLR 22/21 A2992 RMK AO2 T02210210
KLHB 250715Z AUTO 00000KT 10SM CLR 22/21 A2992 RMK AO2 T02200207
KLHB 250655Z AUTO 00000KT 10SM CLR 22/21 A2991 RMK AO2 T02200205
KLHB 250635Z AUTO 00000KT 10SM CLR 22/21 A2991 RMK AO2 T02210205
KLHB 250615Z AUTO 00000KT 10SM CLR 23/21 A2990 RMK AO2 T02250207
KLHB 250555Z AUTO 00000KT 10SM CLR 23/21 A2990 RMK AO2 T02250206 10265 20223 403050195
KLHB 250535Z AUTO 00000KT 10SM CLR 23/21 A2990 RMK AO2 T02250205
KLHB 250515Z AUTO 00000KT 10SM CLR 23/21 A2990 RMK AO2 T02280205
KLHB 250455Z AUTO 00000KT 10SM CLR 23/21 A2989 RMK AO2 T02310206
KLHB 250435Z AUTO 00000KT 10SM CLR 23/20 A2989 RMK AO2 T02270203
KLHB 250415Z AUTO 00000KT 10SM CLR 23/20 A2989 RMK AO2 T02250203
KLHB 250355Z AUTO 00000KT 10SM CLR 23/20 A2988 RMK AO2 T02260204
KLHB 250335Z AUTO 00000KT 10SM CLR 23/21 A2988 RMK AO2 T02300205
KLHB 250315Z AUTO 00000KT 10SM CLR 23/21 A2987 RMK AO2 T02310205
KLHB 250255Z AUTO 00000KT 10SM CLR 23/21 A2987 RMK AO2 T02340205
KLHB 250235Z AUTO 00000KT 10SM CLR 23/21 A2986 RMK AO2 T02310205
KLHB 250215Z AUTO 00000KT 10SM CLR 23/21 A2986 RMK AO2 T02330206
KLHB 250155Z AUTO 00000KT 10SM CLR 23/21 A2986 RMK AO2 T02340206
KLHB 250135Z AUTO 00000KT 10SM CLR 24/21 A2986 RMK AO2 T02360205
KLHB 250115Z AUTO 00000KT 10SM CLR 24/21 A2985 RMK AO2 T02440208
KLHB 250055Z AUTO 00000KT 10SM CLR 25/21 A2984 RMK AO2 T02470209
KLHB 250035Z AUTO 00000KT 10SM CLR 26/21 A2985 RMK AO2 T02570206
KLHB 250015Z AUTO 00000KT 10SM CLR 27/21 A2983 RMK AO2 T02650208
KLHB 242355Z AUTO 00000KT 10SM CLR 26/21 A2983 RMK AO2 T02600206 10305 20260
KLHB 242335Z AUTO 00000KT 10SM CLR 28/21 A2982 RMK AO2 T02810205
KLHB 242315Z AUTO 21005KT 10SM SCT050 29/21 A2981 RMK AO2 T02900205
KLHB 242255Z AUTO 18005KT 10SM SCT043 SCT050 29/21 A2981 RMK AO2 T02920205
KLHB 242235Z AUTO 19005KT 10SM SCT043 BKN050 BKN055 29/21 A2982 RMK AO2 T02930210
KLHB 242215Z AUTO 19006KT 10SM BKN047 BKN055 30/21 A2982 RMK AO2 T03040207
KLHB 242155Z AUTO 17007KT 10SM SCT041 SCT047 30/21 A2980 RMK AO2 T02960205
KLHB 242135Z AUTO 18008KT 10SM SCT039 SCT046 30/21 A2980 RMK AO2 T03030207
KLHB 242115Z AUTO 18011KT 10SM SCT037 SCT043 BKN050 30/21 A2981 RMK AO2 T03000209
KLHB 242055Z AUTO 17008KT 10SM SCT037 SCT043 30/21 A2981 RMK AO2 T03020212
KLHB 242035Z AUTO 18011G15KT 10SM CLR 30/21 A2981 RMK AO2 T03020214
KLHB 242015Z AUTO 18009KT 10SM SCT035 SCT049 30/21 A2981 RMK AO2 T03010214
KLHB 241955Z AUTO 18009KT 10SM SCT035 SCT049 30/21 A2982 RMK AO2 T02970211
KLHB 241935Z AUTO 18007KT 10SM BKN035 BKN047 BKN050 29/21 A2984 RMK AO2 T02930212
KLHB 241915Z AUTO 16008KT 10SM SCT034 BKN041 BKN050 29/21 A2984 RMK AO2 T02910212
KLHB 241855Z AUTO 14007KT 10SM SCT029 BKN045 BKN050 29/21 A2985 RMK AO2 T02890211
KLHB 241835Z AUTO 16007KT 10SM SCT027 SCT042 BKN050 29/21 A2986 RMK AO2 T02900214
KLHB 241815Z AUTO 17009KT 10SM SCT038 SCT044 BKN050 29/22 A2987 RMK AO2 T02920215
KLHB 241755Z AUTO 17008KT 10SM SCT022 BKN043 28/22 A2989 RMK AO2 T02840216 10288 20204
KLHB 241735Z AUTO 15007KT 10SM SCT020 28/22 A2990 RMK AO2 T02790219
KLHB 241715Z AUTO 15008KT 10SM BKN016 27/22 A2989 RMK AO2 T02730218
KLHB 241655Z AUTO 14006KT 10SM BKN014 26/22 A2990 RMK AO2 T02620218
KLHB 241635Z AUTO 15009KT 10SM BKN012 27/22 A2990 RMK AO2 T02650218
KLHB 241615Z AUTO 16007KT 10SM BKN010 25/22 A2992 RMK AO2 T02540215
KLHB 241555Z AUTO 16007KT 10SM BKN010 25/21 A2992 RMK AO2 T02450211
KLHB 241535Z AUTO 15005KT 10SM BKN010 BKN018 24/21 A2992 RMK AO2 T02390209
KLHB 241515Z AUTO 15004KT 10SM OVC010 23/20 A2992 RMK AO2 T02260203
KLHB 241455Z AUTO 18004KT 10SM OVC010 23/20 A2993 RMK AO2 T02250201
KLHB 241435Z AUTO 15004KT 10SM BKN010 BKN024 OVC046 22/20 A2991 RMK AO2 T02220201
KLHB 241415Z AUTO 00000KT 10SM SCT013 BKN020 OVC044 22/20 A2991 RMK AO2 T02160200
KLHB 241355Z AUTO 00000KT 10SM -RA SCT013 BKN021 OVC037 21/20 A2990 RMK AO2 T02120196
KLHB 241335Z AUTO 13003KT 10SM SCT022 BKN033 OVC039 21/20 A2989 RMK AO2 T02110197
KLHB 241315Z AUTO 00000KT 10SM BKN010 OVC032 21/20 A2988 RMK AO2 T02090196
KLHB 241255Z AUTO 00000KT 10SM BKN010 OVC026 21/20 A2988 RMK AO2 T02060195
KLHB 241235Z AUTO 00000KT 10SM SCT010 BKN024 OVC029 21/20 A2987 RMK AO2 T02050195
KLHB 241215Z AUTO 00000KT 10SM SCT004 OVC024 21/20 A2987 RMK AO2 T02050195
KLHB 241155Z AUTO 00000KT 7SM BKN004 OVC024 20/19 A2986 RMK AO2 T02040193 10205 20195
KLHB 241135Z AUTO 00000KT 7SM OVC004 21/20 A2986 RMK AO2 T02050195
KLHB 241115Z AUTO 00000KT 7SM OVC004 20/19 A2986 RMK AO2 T02040193
KLHB 241055Z AUTO 00000KT 7SM OVC004 20/19 A2986 RMK AO2 T02030192
KLHB 241035Z AUTO 15004KT 7SM OVC004 20/19 A2986 RMK AO2 T02030192